sensor_id;sensor_type;location;lat;lon;timestamp;P1;durP1;ratioP1;P2;durP2;ratioP2
18677;SDS011;9469;51.114;13.914;2023-03-14T00:02:54;2.10;;;1.20;;
18677;SDS011;9469;51.114;13.914;2023-03-14T00:08:00;1.20;;;1.10;;
18677;SDS011;9469;51.114;13.914;2023-03-14T00:13:11;1.60;;;1.30;;
18677;SDS011;9469;51.114;13.914;2023-03-14T00:18:16;2.00;;;1.80;;
18677;SDS011;9469;51.114;13.914;2023-03-14T00:23:22;2.50;;;2.27;;
18677;SDS011;9469;51.114;13.914;2023-03-14T00:28:30;2.87;;;2.60;;
18677;SDS011;9469;51.114;13.914;2023-03-14T00:33:35;3.90;;;2.40;;
18677;SDS011;9469;51.114;13.914;2023-03-14T00:38:41;3.60;;;2.60;;
18677;SDS011;9469;51.114;13.914;2023-03-14T00:43:50;2.63;;;1.97;;
18677;SDS011;9469;51.114;13.914;2023-03-14T00:48:55;3.50;;;2.40;;
18677;SDS011;9469;51.114;13.914;2023-03-14T00:54:03;3.27;;;2.70;;
18677;SDS011;9469;51.114;13.914;2023-03-14T00:59:10;2.80;;;2.47;;
18677;SDS011;9469;51.114;13.914;2023-03-14T01:04:19;2.43;;;2.20;;
18677;SDS011;9469;51.114;13.914;2023-03-14T01:09:25;2.57;;;2.10;;
18677;SDS011;9469;51.114;13.914;2023-03-14T01:14:33;2.60;;;2.30;;
18677;SDS011;9469;51.114;13.914;2023-03-14T01:19:39;2.87;;;2.10;;
18677;SDS011;9469;51.114;13.914;2023-03-14T01:24:44;2.97;;;2.63;;
18677;SDS011;9469;51.114;13.914;2023-03-14T01:29:54;3.13;;;2.80;;
18677;SDS011;9469;51.114;13.914;2023-03-14T01:35:02;3.57;;;3.27;;
18677;SDS011;9469;51.114;13.914;2023-03-14T01:40:10;3.83;;;3.40;;
18677;SDS011;9469;51.114;13.914;2023-03-14T01:51:00;4.07;;;3.67;;
18677;SDS011;9469;51.114;13.914;2023-03-14T01:56:07;4.23;;;3.63;;
18677;SDS011;9469;51.114;13.914;2023-03-14T02:01:13;4.60;;;3.33;;
18677;SDS011;9469;51.114;13.914;2023-03-14T02:06:25;5.37;;;3.30;;
18677;SDS011;9469;51.114;13.914;2023-03-14T02:11:35;4.80;;;3.50;;
18677;SDS011;9469;51.114;13.914;2023-03-14T02:16:48;4.13;;;3.33;;
18677;SDS011;9469;51.114;13.914;2023-03-14T02:22:24;3.60;;;3.27;;
18677;SDS011;9469;51.114;13.914;2023-03-14T02:27:37;3.97;;;2.60;;
18677;SDS011;9469;51.114;13.914;2023-03-14T02:32:43;2.23;;;2.10;;
18677;SDS011;9469;51.114;13.914;2023-03-14T02:37:55;3.00;;;2.40;;
18677;SDS011;9469;51.114;13.914;2023-03-14T02:43:12;2.13;;;1.93;;
18677;SDS011;9469;51.114;13.914;2023-03-14T02:48:30;2.60;;;1.83;;
18677;SDS011;9469;51.114;13.914;2023-03-14T02:53:44;1.80;;;1.70;;
18677;SDS011;9469;51.114;13.914;2023-03-14T02:58:56;1.33;;;1.23;;
18677;SDS011;9469;51.114;13.914;2023-03-14T03:04:26;1.30;;;1.20;;
18677;SDS011;9469;51.114;13.914;2023-03-14T03:09:36;1.90;;;1.00;;
18677;SDS011;9469;51.114;13.914;2023-03-14T03:14:43;1.60;;;1.10;;
18677;SDS011;9469;51.114;13.914;2023-03-14T03:19:49;0.80;;;0.80;;
18677;SDS011;9469;51.114;13.914;2023-03-14T03:24:54;0.80;;;0.80;;
18677;SDS011;9469;51.114;13.914;2023-03-14T03:30:02;1.93;;;0.90;;
18677;SDS011;9469;51.114;13.914;2023-03-14T03:35:28;0.93;;;0.73;;
18677;SDS011;9469;51.114;13.914;2023-03-14T03:40:36;0.67;;;0.67;;
18677;SDS011;9469;51.114;13.914;2023-03-14T03:45:46;1.53;;;0.90;;
18677;SDS011;9469;51.114;13.914;2023-03-14T03:50:54;0.90;;;0.90;;
18677;SDS011;9469;51.114;13.914;2023-03-14T03:55:59;0.70;;;0.60;;
18677;SDS011;9469;51.114;13.914;2023-03-14T04:01:08;0.80;;;0.80;;
18677;SDS011;9469;51.114;13.914;2023-03-14T04:06:14;0.80;;;0.80;;
18677;SDS011;9469;51.114;13.914;2023-03-14T04:11:22;0.93;;;0.80;;
18677;SDS011;9469;51.114;13.914;2023-03-14T04:16:53;0.80;;;0.80;;
18677;SDS011;9469;51.114;13.914;2023-03-14T04:21:59;0.70;;;0.70;;
18677;SDS011;9469;51.114;13.914;2023-03-14T04:27:10;0.90;;;0.90;;
18677;SDS011;9469;51.114;13.914;2023-03-14T04:32:24;0.83;;;0.60;;
18677;SDS011;9469;51.114;13.914;2023-03-14T04:37:39;0.67;;;0.67;;
18677;SDS011;9469;51.114;13.914;2023-03-14T04:42:50;0.70;;;0.70;;
18677;SDS011;9469;51.114;13.914;2023-03-14T04:48:08;0.53;;;0.53;;
18677;SDS011;9469;51.114;13.914;2023-03-14T04:53:14;1.23;;;0.53;;
18677;SDS011;9469;51.114;13.914;2023-03-14T04:58:25;1.07;;;0.97;;
18677;SDS011;9469;51.114;13.914;2023-03-14T05:03:35;2.73;;;0.90;;
18677;SDS011;9469;51.114;13.914;2023-03-14T05:09:00;1.03;;;0.60;;
18677;SDS011;9469;51.114;13.914;2023-03-14T05:14:15;1.87;;;1.10;;
18677;SDS011;9469;51.114;13.914;2023-03-14T05:19:38;3.23;;;1.63;;
18677;SDS011;9469;51.114;13.914;2023-03-14T05:25:04;0.90;;;0.60;;
18677;SDS011;9469;51.114;13.914;2023-03-14T05:30:33;1.73;;;1.07;;
18677;SDS011;9469;51.114;13.914;2023-03-14T05:35:58;2.80;;;0.97;;
18677;SDS011;9469;51.114;13.914;2023-03-14T05:41:17;1.63;;;1.03;;
18677;SDS011;9469;51.114;13.914;2023-03-14T05:46:48;1.80;;;0.93;;
18677;SDS011;9469;51.114;13.914;2023-03-14T05:52:06;2.30;;;1.10;;
18677;SDS011;9469;51.114;13.914;2023-03-14T05:57:31;3.97;;;1.33;;
18677;SDS011;9469;51.114;13.914;2023-03-14T06:02:58;5.60;;;1.07;;
18677;SDS011;9469;51.114;13.914;2023-03-14T06:08:26;2.40;;;1.47;;
18677;SDS011;9469;51.114;13.914;2023-03-14T06:13:34;5.23;;;1.97;;
18677;SDS011;9469;51.114;13.914;2023-03-14T06:18:45;13.53;;;4.97;;
18677;SDS011;9469;51.114;13.914;2023-03-14T06:23:56;6.20;;;2.13;;
18677;SDS011;9469;51.114;13.914;2023-03-14T06:29:03;5.30;;;2.43;;
18677;SDS011;9469;51.114;13.914;2023-03-14T06:34:09;6.57;;;2.70;;
18677;SDS011;9469;51.114;13.914;2023-03-14T06:39:17;6.47;;;3.00;;
18677;SDS011;9469;51.114;13.914;2023-03-14T06:44:32;12.70;;;3.90;;
18677;SDS011;9469;51.114;13.914;2023-03-14T06:49:56;10.60;;;3.80;;
18677;SDS011;9469;51.114;13.914;2023-03-14T06:55:08;7.93;;;2.40;;
18677;SDS011;9469;51.114;13.914;2023-03-14T07:00:17;9.73;;;4.40;;
18677;SDS011;9469;51.114;13.914;2023-03-14T07:05:29;8.90;;;2.87;;
18677;SDS011;9469;51.114;13.914;2023-03-14T07:10:37;4.60;;;2.33;;
18677;SDS011;9469;51.114;13.914;2023-03-14T07:15:43;3.90;;;2.40;;
18677;SDS011;9469;51.114;13.914;2023-03-14T07:20:49;8.43;;;2.73;;
18677;SDS011;9469;51.114;13.914;2023-03-14T07:25:57;11.90;;;5.50;;
18677;SDS011;9469;51.114;13.914;2023-03-14T07:31:04;5.27;;;2.27;;
18677;SDS011;9469;51.114;13.914;2023-03-14T07:36:18;10.13;;;4.73;;
18677;SDS011;9469;51.114;13.914;2023-03-14T07:41:55;8.00;;;3.20;;
18677;SDS011;9469;51.114;13.914;2023-03-14T07:47:17;6.33;;;2.30;;
18677;SDS011;9469;51.114;13.914;2023-03-14T07:52:22;5.10;;;2.07;;
18677;SDS011;9469;51.114;13.914;2023-03-14T07:57:30;11.63;;;4.97;;
18677;SDS011;9469;51.114;13.914;2023-03-14T08:02:35;10.20;;;3.33;;
18677;SDS011;9469;51.114;13.914;2023-03-14T08:07:42;11.10;;;4.03;;
18677;SDS011;9469;51.114;13.914;2023-03-14T08:12:50;10.33;;;3.27;;
18677;SDS011;9469;51.114;13.914;2023-03-14T08:18:01;4.60;;;1.70;;
18677;SDS011;9469;51.114;13.914;2023-03-14T08:23:07;3.60;;;1.73;;
18677;SDS011;9469;51.114;13.914;2023-03-14T08:28:17;15.93;;;5.20;;
18677;SDS011;9469;51.114;13.914;2023-03-14T08:33:24;4.60;;;1.10;;
18677;SDS011;9469;51.114;13.914;2023-03-14T08:38:31;11.03;;;3.17;;
18677;SDS011;9469;51.114;13.914;2023-03-14T08:43:41;2.67;;;1.10;;
18677;SDS011;9469;51.114;13.914;2023-03-14T08:48:51;5.60;;;1.70;;
18677;SDS011;9469;51.114;13.914;2023-03-14T08:53:59;7.43;;;2.00;;
18677;SDS011;9469;51.114;13.914;2023-03-14T08:59:14;5.17;;;1.60;;
18677;SDS011;9469;51.114;13.914;2023-03-14T09:04:25;4.67;;;1.70;;
18677;SDS011;9469;51.114;13.914;2023-03-14T09:09:30;3.00;;;1.70;;
18677;SDS011;9469;51.114;13.914;2023-03-14T09:14:38;4.47;;;1.77;;
18677;SDS011;9469;51.114;13.914;2023-03-14T09:19:46;5.00;;;1.57;;
18677;SDS011;9469;51.114;13.914;2023-03-14T09:24:55;4.57;;;1.93;;
18677;SDS011;9469;51.114;13.914;2023-03-14T09:30:07;5.03;;;1.43;;
18677;SDS011;9469;51.114;13.914;2023-03-14T09:35:15;6.73;;;3.03;;
18677;SDS011;9469;51.114;13.914;2023-03-14T09:40:21;8.10;;;2.87;;
18677;SDS011;9469;51.114;13.914;2023-03-14T09:45:31;6.03;;;1.50;;
18677;SDS011;9469;51.114;13.914;2023-03-14T09:50:43;3.20;;;2.00;;
18677;SDS011;9469;51.114;13.914;2023-03-14T09:55:58;6.13;;;1.80;;
18677;SDS011;9469;51.114;13.914;2023-03-14T10:01:07;8.67;;;1.93;;
18677;SDS011;9469;51.114;13.914;2023-03-14T10:06:21;4.00;;;1.67;;
18677;SDS011;9469;51.114;13.914;2023-03-14T10:11:35;2.83;;;1.67;;
18677;SDS011;9469;51.114;13.914;2023-03-14T10:16:46;2.67;;;1.10;;
18677;SDS011;9469;51.114;13.914;2023-03-14T10:21:52;6.90;;;2.90;;
18677;SDS011;9469;51.114;13.914;2023-03-14T10:27:01;5.93;;;2.63;;
18677;SDS011;9469;51.114;13.914;2023-03-14T10:37:58;2.57;;;1.30;;
18677;SDS011;9469;51.114;13.914;2023-03-14T10:43:06;2.40;;;1.13;;
18677;SDS011;9469;51.114;13.914;2023-03-14T10:48:20;2.43;;;1.17;;
18677;SDS011;9469;51.114;13.914;2023-03-14T10:53:35;2.63;;;1.70;;
18677;SDS011;9469;51.114;13.914;2023-03-14T10:58:56;9.27;;;1.70;;
18677;SDS011;9469;51.114;13.914;2023-03-14T11:04:03;1.17;;;0.80;;
18677;SDS011;9469;51.114;13.914;2023-03-14T11:09:23;3.57;;;1.70;;
18677;SDS011;9469;51.114;13.914;2023-03-14T11:14:34;5.70;;;2.40;;
18677;SDS011;9469;51.114;13.914;2023-03-14T11:19:52;3.70;;;2.00;;
18677;SDS011;9469;51.114;13.914;2023-03-14T11:25:14;2.27;;;1.37;;
18677;SDS011;9469;51.114;13.914;2023-03-14T11:30:30;1.87;;;1.10;;
18677;SDS011;9469;51.114;13.914;2023-03-14T11:35:45;1.17;;;0.90;;
18677;SDS011;9469;51.114;13.914;2023-03-14T11:40:57;5.27;;;1.07;;
18677;SDS011;9469;51.114;13.914;2023-03-14T11:46:08;1.90;;;0.80;;
18677;SDS011;9469;51.114;13.914;2023-03-14T11:51:19;8.03;;;3.40;;
18677;SDS011;9469;51.114;13.914;2023-03-14T11:56:37;1.97;;;1.00;;
18677;SDS011;9469;51.114;13.914;2023-03-14T12:01:52;1.87;;;1.00;;
18677;SDS011;9469;51.114;13.914;2023-03-14T12:07:00;3.97;;;1.63;;
18677;SDS011;9469;51.114;13.914;2023-03-14T12:12:16;0.70;;;0.70;;
18677;SDS011;9469;51.114;13.914;2023-03-14T12:17:34;1.07;;;0.93;;
18677;SDS011;9469;51.114;13.914;2023-03-14T12:22:42;5.87;;;0.80;;
18677;SDS011;9469;51.114;13.914;2023-03-14T12:33:21;0.70;;;0.67;;
18677;SDS011;9469;51.114;13.914;2023-03-14T12:38:45;1.27;;;0.80;;
18677;SDS011;9469;51.114;13.914;2023-03-14T12:49:48;3.00;;;0.80;;
18677;SDS011;9469;51.114;13.914;2023-03-14T12:54:57;2.03;;;0.60;;
18677;SDS011;9469;51.114;13.914;2023-03-14T13:00:16;1.03;;;0.90;;
18677;SDS011;9469;51.114;13.914;2023-03-14T13:05:28;1.33;;;1.00;;
18677;SDS011;9469;51.114;13.914;2023-03-14T13:10:42;1.37;;;0.90;;
18677;SDS011;9469;51.114;13.914;2023-03-14T13:15:58;0.80;;;0.80;;
18677;SDS011;9469;51.114;13.914;2023-03-14T13:21:09;1.50;;;0.80;;
18677;SDS011;9469;51.114;13.914;2023-03-14T13:26:19;2.17;;;0.73;;
18677;SDS011;9469;51.114;13.914;2023-03-14T13:37:27;0.90;;;0.60;;
18677;SDS011;9469;51.114;13.914;2023-03-14T13:42:42;1.90;;;0.50;;
18677;SDS011;9469;51.114;13.914;2023-03-14T13:47:56;0.70;;;0.70;;
18677;SDS011;9469;51.114;13.914;2023-03-14T13:53:13;0.53;;;0.53;;
18677;SDS011;9469;51.114;13.914;2023-03-14T13:58:20;1.73;;;0.70;;
18677;SDS011;9469;51.114;13.914;2023-03-14T14:03:32;1.00;;;0.60;;
18677;SDS011;9469;51.114;13.914;2023-03-14T14:08:46;0.60;;;0.50;;
18677;SDS011;9469;51.114;13.914;2023-03-14T14:13:54;0.87;;;0.60;;
18677;SDS011;9469;51.114;13.914;2023-03-14T14:18:59;0.77;;;0.50;;
18677;SDS011;9469;51.114;13.914;2023-03-14T14:24:12;0.70;;;0.50;;
18677;SDS011;9469;51.114;13.914;2023-03-14T14:29:24;1.57;;;0.40;;
18677;SDS011;9469;51.114;13.914;2023-03-14T14:34:38;1.23;;;0.40;;
18677;SDS011;9469;51.114;13.914;2023-03-14T14:39:54;0.63;;;0.40;;
18677;SDS011;9469;51.114;13.914;2023-03-14T14:45:02;0.40;;;0.40;;
18677;SDS011;9469;51.114;13.914;2023-03-14T14:50:20;0.90;;;0.70;;
18677;SDS011;9469;51.114;13.914;2023-03-14T14:55:39;2.57;;;0.60;;
18677;SDS011;9469;51.114;13.914;2023-03-14T15:00:50;1.37;;;0.53;;
18677;SDS011;9469;51.114;13.914;2023-03-14T15:05:59;0.43;;;0.37;;
18677;SDS011;9469;51.114;13.914;2023-03-14T15:11:08;2.50;;;0.50;;
18677;SDS011;9469;51.114;13.914;2023-03-14T15:16:21;1.57;;;0.50;;
18677;SDS011;9469;51.114;13.914;2023-03-14T15:21:28;2.97;;;0.50;;
18677;SDS011;9469;51.114;13.914;2023-03-14T15:26:38;4.10;;;0.80;;
18677;SDS011;9469;51.114;13.914;2023-03-14T15:31:45;3.83;;;0.80;;
18677;SDS011;9469;51.114;13.914;2023-03-14T15:36:51;1.47;;;0.70;;
18677;SDS011;9469;51.114;13.914;2023-03-14T15:42:00;0.50;;;0.40;;
18677;SDS011;9469;51.114;13.914;2023-03-14T15:47:06;0.83;;;0.57;;
18677;SDS011;9469;51.114;13.914;2023-03-14T15:52:13;0.50;;;0.50;;
18677;SDS011;9469;51.114;13.914;2023-03-14T15:57:20;0.63;;;0.50;;
18677;SDS011;9469;51.114;13.914;2023-03-14T16:02:26;0.97;;;0.63;;
18677;SDS011;9469;51.114;13.914;2023-03-14T16:07:33;0.63;;;0.63;;
18677;SDS011;9469;51.114;13.914;2023-03-14T16:12:41;0.70;;;0.50;;
18677;SDS011;9469;51.114;13.914;2023-03-14T16:17:51;1.60;;;0.50;;
18677;SDS011;9469;51.114;13.914;2023-03-14T16:22:58;3.40;;;0.53;;
18677;SDS011;9469;51.114;13.914;2023-03-14T16:28:07;1.73;;;0.67;;
18677;SDS011;9469;51.114;13.914;2023-03-14T16:33:13;1.00;;;0.70;;
18677;SDS011;9469;51.114;13.914;2023-03-14T16:38:22;1.00;;;0.50;;
18677;SDS011;9469;51.114;13.914;2023-03-14T16:43:34;3.20;;;0.63;;
18677;SDS011;9469;51.114;13.914;2023-03-14T16:48:40;2.37;;;0.70;;
18677;SDS011;9469;51.114;13.914;2023-03-14T16:53:46;9.07;;;2.97;;
18677;SDS011;9469;51.114;13.914;2023-03-14T16:58:55;1.03;;;0.60;;
18677;SDS011;9469;51.114;13.914;2023-03-14T17:04:01;0.93;;;0.70;;
18677;SDS011;9469;51.114;13.914;2023-03-14T17:09:10;1.63;;;0.63;;
18677;SDS011;9469;51.114;13.914;2023-03-14T17:14:18;0.67;;;0.67;;
18677;SDS011;9469;51.114;13.914;2023-03-14T17:19:24;0.50;;;0.50;;
18677;SDS011;9469;51.114;13.914;2023-03-14T17:24:32;0.70;;;0.70;;
18677;SDS011;9469;51.114;13.914;2023-03-14T17:29:45;0.63;;;0.60;;
18677;SDS011;9469;51.114;13.914;2023-03-14T17:34:52;0.70;;;0.70;;
18677;SDS011;9469;51.114;13.914;2023-03-14T17:39:57;2.40;;;1.20;;
18677;SDS011;9469;51.114;13.914;2023-03-14T17:45:08;1.93;;;0.90;;
18677;SDS011;9469;51.114;13.914;2023-03-14T17:50:16;3.73;;;1.87;;
18677;SDS011;9469;51.114;13.914;2023-03-14T17:55:22;6.77;;;1.93;;
18677;SDS011;9469;51.114;13.914;2023-03-14T18:00:29;22.90;;;5.33;;
18677;SDS011;9469;51.114;13.914;2023-03-14T18:05:36;3.77;;;1.60;;
18677;SDS011;9469;51.114;13.914;2023-03-14T18:10:42;4.00;;;1.77;;
18677;SDS011;9469;51.114;13.914;2023-03-14T18:15:50;8.37;;;1.70;;
18677;SDS011;9469;51.114;13.914;2023-03-14T18:20:55;22.07;;;3.03;;
18677;SDS011;9469;51.114;13.914;2023-03-14T18:26:01;15.83;;;3.10;;
18677;SDS011;9469;51.114;13.914;2023-03-14T18:31:12;5.67;;;2.57;;
18677;SDS011;9469;51.114;13.914;2023-03-14T18:36:23;7.87;;;2.27;;
18677;SDS011;9469;51.114;13.914;2023-03-14T18:41:27;4.53;;;2.20;;
18677;SDS011;9469;51.114;13.914;2023-03-14T18:46:35;5.33;;;2.17;;
18677;SDS011;9469;51.114;13.914;2023-03-14T18:51:40;6.77;;;1.70;;
18677;SDS011;9469;51.114;13.914;2023-03-14T18:56:46;4.97;;;1.97;;
18677;SDS011;9469;51.114;13.914;2023-03-14T19:01:55;7.23;;;2.07;;
18677;SDS011;9469;51.114;13.914;2023-03-14T19:07:01;7.93;;;1.97;;
18677;SDS011;9469;51.114;13.914;2023-03-14T19:12:15;5.87;;;1.90;;
18677;SDS011;9469;51.114;13.914;2023-03-14T19:17:25;6.17;;;1.83;;
18677;SDS011;9469;51.114;13.914;2023-03-14T19:22:32;2.90;;;1.70;;
18677;SDS011;9469;51.114;13.914;2023-03-14T19:27:37;3.77;;;1.97;;
18677;SDS011;9469;51.114;13.914;2023-03-14T19:32:47;6.30;;;1.77;;
18677;SDS011;9469;51.114;13.914;2023-03-14T19:37:55;3.73;;;1.87;;
18677;SDS011;9469;51.114;13.914;2023-03-14T19:43:02;5.60;;;1.67;;
18677;SDS011;9469;51.114;13.914;2023-03-14T19:48:13;4.43;;;2.53;;
18677;SDS011;9469;51.114;13.914;2023-03-14T19:53:21;4.20;;;1.80;;
18677;SDS011;9469;51.114;13.914;2023-03-14T19:58:27;4.30;;;2.13;;
18677;SDS011;9469;51.114;13.914;2023-03-14T20:03:39;4.93;;;2.07;;
18677;SDS011;9469;51.114;13.914;2023-03-14T20:08:45;6.90;;;2.53;;
18677;SDS011;9469;51.114;13.914;2023-03-14T20:13:55;6.43;;;2.47;;
18677;SDS011;9469;51.114;13.914;2023-03-14T20:19:05;12.30;;;3.03;;
18677;SDS011;9469;51.114;13.914;2023-03-14T20:24:13;9.47;;;2.40;;
18677;SDS011;9469;51.114;13.914;2023-03-14T20:29:19;16.07;;;2.63;;
18677;SDS011;9469;51.114;13.914;2023-03-14T20:34:37;3.43;;;2.27;;
18677;SDS011;9469;51.114;13.914;2023-03-14T20:39:42;9.23;;;3.17;;
18677;SDS011;9469;51.114;13.914;2023-03-14T20:44:48;18.63;;;3.00;;
18677;SDS011;9469;51.114;13.914;2023-03-14T20:49:58;15.87;;;3.13;;
18677;SDS011;9469;51.114;13.914;2023-03-14T20:55:05;7.83;;;2.80;;
18677;SDS011;9469;51.114;13.914;2023-03-14T21:00:13;8.23;;;3.03;;
18677;SDS011;9469;51.114;13.914;2023-03-14T21:05:22;16.07;;;2.87;;
18677;SDS011;9469;51.114;13.914;2023-03-14T21:10:29;8.23;;;2.90;;
18677;SDS011;9469;51.114;13.914;2023-03-14T21:15:35;11.70;;;3.03;;
18677;SDS011;9469;51.114;13.914;2023-03-14T21:20:45;14.67;;;2.80;;
18677;SDS011;9469;51.114;13.914;2023-03-14T21:25:50;9.20;;;2.97;;
18677;SDS011;9469;51.114;13.914;2023-03-14T21:31:02;9.83;;;2.30;;
18677;SDS011;9469;51.114;13.914;2023-03-14T21:36:14;12.23;;;3.13;;
18677;SDS011;9469;51.114;13.914;2023-03-14T21:41:22;6.97;;;3.20;;
18677;SDS011;9469;51.114;13.914;2023-03-14T21:46:29;7.87;;;2.87;;
18677;SDS011;9469;51.114;13.914;2023-03-14T21:51:39;8.10;;;2.50;;
18677;SDS011;9469;51.114;13.914;2023-03-14T21:56:46;6.80;;;2.60;;
18677;SDS011;9469;51.114;13.914;2023-03-14T22:01:51;9.57;;;3.77;;
18677;SDS011;9469;51.114;13.914;2023-03-14T22:06:59;12.77;;;4.27;;
18677;SDS011;9469;51.114;13.914;2023-03-14T22:12:06;10.60;;;2.40;;
18677;SDS011;9469;51.114;13.914;2023-03-14T22:17:11;10.53;;;2.70;;
18677;SDS011;9469;51.114;13.914;2023-03-14T22:22:19;8.33;;;2.73;;
18677;SDS011;9469;51.114;13.914;2023-03-14T22:27:24;11.53;;;3.17;;
18677;SDS011;9469;51.114;13.914;2023-03-14T22:32:31;11.17;;;3.00;;
18677;SDS011;9469;51.114;13.914;2023-03-14T22:37:39;10.33;;;3.00;;
18677;SDS011;9469;51.114;13.914;2023-03-14T22:42:44;11.03;;;3.00;;
18677;SDS011;9469;51.114;13.914;2023-03-14T22:47:50;9.83;;;2.63;;
18677;SDS011;9469;51.114;13.914;2023-03-14T22:52:58;7.60;;;2.60;;
18677;SDS011;9469;51.114;13.914;2023-03-14T22:58:04;9.10;;;2.90;;
18677;SDS011;9469;51.114;13.914;2023-03-14T23:03:10;10.80;;;2.93;;
18677;SDS011;9469;51.114;13.914;2023-03-14T23:08:20;11.97;;;2.80;;
18677;SDS011;9469;51.114;13.914;2023-03-14T23:13:26;7.20;;;2.60;;
18677;SDS011;9469;51.114;13.914;2023-03-14T23:18:34;13.27;;;2.53;;
18677;SDS011;9469;51.114;13.914;2023-03-14T23:23:45;5.53;;;2.53;;
18677;SDS011;9469;51.114;13.914;2023-03-14T23:28:51;12.10;;;3.47;;
18677;SDS011;9469;51.114;13.914;2023-03-14T23:33:57;11.77;;;2.43;;
18677;SDS011;9469;51.114;13.914;2023-03-14T23:39:06;8.10;;;2.83;;
18677;SDS011;9469;51.114;13.914;2023-03-14T23:44:12;6.27;;;2.40;;
18677;SDS011;9469;51.114;13.914;2023-03-14T23:49:17;8.60;;;2.70;;
18677;SDS011;9469;51.114;13.914;2023-03-14T23:54:24;9.07;;;2.87;;
18677;SDS011;9469;51.114;13.914;2023-03-14T23:59:32;9.10;;;2.67;;
